createdAt,value
2022-10-17T00:02:11.785Z,96007.05
2022-10-17T00:04:38.526Z,96006.19
2022-10-17T00:07:05.240Z,96011.91
2022-10-17T00:09:31.966Z,96011.65
2022-10-17T00:11:58.654Z,96010.70
2022-10-17T00:14:25.432Z,96013.80
2022-10-17T00:16:52.128Z,96011.62
2022-10-17T00:19:18.805Z,96011.77
2022-10-17T00:21:45.537Z,96011.66
2022-10-17T00:24:12.217Z,96011.62
2022-10-17T00:26:38.927Z,96013.61
2022-10-17T00:29:06.084Z,96014.59
2022-10-17T00:31:32.879Z,96014.52
2022-10-17T00:33:59.578Z,96016.48
2022-10-17T00:36:26.818Z,96019.78
2022-10-17T00:38:56.961Z,96016.96
2022-10-17T00:41:27.704Z,96016.48
2022-10-17T00:44:00.603Z,96017.14
2022-10-17T00:46:36.642Z,96018.05
2022-10-17T00:49:09.157Z,96022.60
2022-10-17T00:51:43.318Z,96023.04
2022-10-17T00:54:11.622Z,96023.09
2022-10-17T00:56:40.638Z,96024.94
2022-10-17T00:59:12.768Z,96023.54
2022-10-17T01:01:48.388Z,96025.45
2022-10-17T01:04:16.229Z,96025.52
2022-10-17T01:06:42.878Z,96021.92
2022-10-17T01:09:09.659Z,96023.30
2022-10-17T01:11:54.492Z,96021.02
2022-10-17T01:14:41.178Z,96026.40
2022-10-17T01:17:18.778Z,96025.80
2022-10-17T01:20:00.898Z,96027.94
2022-10-17T01:22:47.531Z,96027.21
2022-10-17T01:25:38.385Z,96022.91
2022-10-17T01:28:27.304Z,96025.50
2022-10-17T01:31:08.885Z,96023.67
2022-10-17T01:33:50.920Z,96021.79
2022-10-17T01:36:39.668Z,96031.27
2022-10-17T01:39:36.835Z,96036.05
2022-10-17T01:42:23.568Z,96030.80
2022-10-17T01:45:01.342Z,96033.87
2022-10-17T01:47:32.680Z,96032.99
2022-10-17T01:50:20.260Z,96034.91
2022-10-17T01:52:53.367Z,96033.66
2022-10-17T01:55:28.703Z,96034.58
2022-10-17T01:58:01.065Z,96032.85
2022-10-17T02:00:28.445Z,96034.29
2022-10-17T02:03:00.948Z,96036.71
2022-10-17T02:05:39.778Z,96037.12
2022-10-17T02:08:07.675Z,96038.80
2022-10-17T02:10:49.675Z,96039.05
2022-10-17T02:13:35.447Z,96039.88
2022-10-17T02:16:14.478Z,96043.08
2022-10-17T02:18:51.369Z,96045.44
2022-10-17T02:21:41.973Z,96051.45
2022-10-17T02:24:08.652Z,96052.41
2022-10-17T02:26:48.805Z,96056.72
2022-10-17T02:29:19.617Z,96054.27
2022-10-17T02:31:53.266Z,96052.14
2022-10-17T02:34:28.149Z,96053.08
2022-10-17T02:37:00.632Z,96050.56
2022-10-17T02:39:29.833Z,96053.41
2022-10-17T02:41:59.288Z,96049.54
2022-10-17T02:44:28.549Z,96050.37
2022-10-17T02:47:04.067Z,96053.16
2022-10-17T02:49:39.002Z,96055.08
2022-10-17T02:52:17.283Z,96059.23
2022-10-17T02:54:52.086Z,96061.13
2022-10-17T02:57:31.424Z,96067.73
2022-10-17T03:00:01.500Z,96064.60
2022-10-17T03:02:28.938Z,96066.57
2022-10-17T03:04:56.724Z,96064.30
2022-10-17T03:07:23.465Z,96068.79
2022-10-17T03:09:50.115Z,96066.91
2022-10-17T03:12:16.820Z,96070.88
2022-10-17T03:14:43.501Z,96075.45
2022-10-17T03:17:10.241Z,96082.81
2022-10-17T03:19:37.056Z,96079.64
2022-10-17T03:22:03.776Z,96079.27
2022-10-17T03:24:30.517Z,96077.90
2022-10-17T03:26:57.272Z,96077.34
2022-10-17T03:29:24.067Z,96080.62
2022-10-17T03:31:50.823Z,96086.48
2022-10-17T03:34:19.048Z,96087.38
2022-10-17T03:36:46.337Z,96086.49
2022-10-17T03:39:13.176Z,96087.56
2022-10-17T03:41:39.986Z,96083.58
2022-10-17T03:44:06.748Z,96086.21
2022-10-17T03:46:33.589Z,96089.82
2022-10-17T03:49:00.456Z,96091.02
2022-10-17T03:51:27.192Z,96090.66
2022-10-17T03:53:54.041Z,96092.55
2022-10-17T03:56:25.848Z,96092.89
2022-10-17T03:58:52.859Z,96096.78
2022-10-17T04:01:20.338Z,96095.73
2022-10-17T04:03:55.008Z,96098.44
2022-10-17T04:06:22.664Z,96095.40
2022-10-17T04:08:49.825Z,96098.28
2022-10-17T04:11:19.479Z,96102.79
2022-10-17T04:13:46.484Z,96103.20
2022-10-17T04:16:15.839Z,96103.54
2022-10-17T04:18:43.888Z,96105.13
2022-10-17T04:21:12.572Z,96103.31
2022-10-17T04:23:40.209Z,96105.21
2022-10-17T04:26:07.530Z,96105.41
2022-10-17T04:28:36.019Z,96102.23
2022-10-17T04:31:08.466Z,96101.05
2022-10-17T04:33:35.350Z,96102.61
2022-10-17T04:36:05.267Z,96102.95
2022-10-17T04:38:32.995Z,96102.90
2022-10-17T04:41:05.843Z,96110.34
2022-10-17T04:43:35.034Z,96110.45
2022-10-17T04:46:04.321Z,96110.70
2022-10-17T04:48:31.517Z,96112.34
2022-10-17T04:51:07.289Z,96116.53
2022-10-17T04:53:35.623Z,96118.99
2022-10-17T04:56:08.772Z,96124.42
2022-10-17T04:58:35.584Z,96126.38
2022-10-17T05:01:11.225Z,96130.86
2022-10-17T05:03:38.378Z,96134.52
2022-10-17T05:06:11.051Z,96133.48
2022-10-17T05:08:38.318Z,96129.34
2022-10-17T05:11:06.108Z,96133.58
2022-10-17T05:13:33.426Z,96133.48
2022-10-17T05:16:01.451Z,96136.02
2022-10-17T05:18:29.349Z,96138.77
2022-10-17T05:20:56.354Z,96137.41
2022-10-17T05:23:23.128Z,96139.91
2022-10-17T05:25:54.861Z,96143.50
2022-10-17T05:28:22.295Z,96148.69
2022-10-17T05:30:49.644Z,96148.83
2022-10-17T05:33:16.580Z,96154.58
2022-10-17T05:35:43.324Z,96156.38
2022-10-17T05:38:10.059Z,96156.13
2022-10-17T05:40:38.717Z,96164.16
2022-10-17T05:43:05.766Z,96165.21
2022-10-17T05:45:32.799Z,96166.90
2022-10-17T05:47:59.514Z,96169.75
2022-10-17T05:50:26.320Z,96171.48
2022-10-17T05:52:54.613Z,96172.20
2022-10-17T05:55:21.964Z,96168.27
2022-10-17T05:57:49.608Z,96176.29
2022-10-17T06:00:16.755Z,96177.90
2022-10-17T06:02:46.164Z,96172.66
2022-10-17T06:05:14.029Z,96176.11
2022-10-17T06:07:41.313Z,96180.44
2022-10-17T06:10:08.411Z,96180.90
2022-10-17T06:12:35.284Z,96183.70
2022-10-17T06:15:01.994Z,96188.23
2022-10-17T06:17:30.529Z,96190.39
2022-10-17T06:19:57.802Z,96197.64
2022-10-17T06:22:24.696Z,96200.04
2022-10-17T06:24:52.905Z,96201.02
2022-10-17T06:27:20.984Z,96205.31
2022-10-17T06:29:48.511Z,96206.37
2022-10-17T06:32:15.376Z,96210.25
2022-10-17T06:34:42.361Z,96209.27
2022-10-17T06:37:09.075Z,96210.21
2022-10-17T06:39:36.260Z,96215.25
2022-10-17T06:42:04.232Z,96212.08
2022-10-17T06:44:32.161Z,96211.85
2022-10-17T06:47:00.197Z,96210.53
2022-10-17T06:49:28.240Z,96212.14
2022-10-17T06:51:55.119Z,96211.13
2022-10-17T06:54:21.843Z,96209.52
2022-10-17T06:56:48.596Z,96210.70
2022-10-17T06:59:15.988Z,96214.58
2022-10-17T07:01:46.154Z,96219.35
2022-10-17T07:04:14.736Z,96223.38
2022-10-17T07:06:41.504Z,96223.68
2022-10-17T07:09:08.288Z,96233.42
2022-10-17T07:11:37.988Z,96236.84
2022-10-17T07:14:04.766Z,96236.97
2022-10-17T07:16:31.614Z,96239.50
2022-10-17T07:18:58.322Z,96243.11
2022-10-17T07:21:25.541Z,96243.52
2022-10-17T07:23:52.275Z,96244.70
2022-10-17T07:26:20.149Z,96244.80
2022-10-17T07:28:51.344Z,96244.20
2022-10-17T07:31:19.970Z,96245.77
2022-10-17T07:36:18.928Z,96246.10
2022-10-17T07:38:45.709Z,96250.39
2022-10-17T07:41:17.791Z,96254.54
2022-10-17T07:43:47.894Z,96250.75
2022-10-17T07:46:14.594Z,96254.98
2022-10-17T07:48:41.403Z,96256.48
2022-10-17T07:51:10.412Z,96257.83
2022-10-17T07:53:39.080Z,96258.55
2022-10-17T07:56:07.557Z,96251.98
2022-10-17T07:58:35.534Z,96247.61
2022-10-17T08:01:10.867Z,96245.99
2022-10-17T08:03:45.528Z,96245.41
2022-10-17T08:06:12.955Z,96245.21
2022-10-17T08:08:39.744Z,96244.27
2022-10-17T08:11:11.956Z,96239.88
2022-10-17T08:13:40.458Z,96237.58
2022-10-17T08:16:09.886Z,96236.84
2022-10-17T08:18:38.975Z,96238.45
2022-10-17T08:21:09.443Z,96238.13
2022-10-17T08:23:37.157Z,96234.83
2022-10-17T08:26:06.747Z,96235.65
2022-10-17T08:28:36.470Z,96235.02
2022-10-17T08:31:09.371Z,96236.31
2022-10-17T08:33:36.218Z,96231.73
2022-10-17T08:36:04.477Z,96232.14
2022-10-17T08:38:35.443Z,96232.77
2022-10-17T08:41:30.444Z,96239.93
2022-10-17T08:44:22.355Z,96235.68
2022-10-17T08:46:54.186Z,96235.05
2022-10-17T08:49:48.810Z,96239.52
2022-10-17T08:52:45.236Z,96239.14
2022-10-17T08:55:42.902Z,96242.05
2022-10-17T08:58:28.292Z,96235.48
2022-10-17T09:01:28.736Z,96234.35
2022-10-17T09:04:21.009Z,96230.63
2022-10-17T09:06:58.931Z,96228.37
2022-10-17T09:09:32.282Z,96233.67
2022-10-17T09:12:23.497Z,96230.48
2022-10-17T09:15:28.197Z,96231.38
2022-10-17T09:18:10.198Z,96233.51
2022-10-17T09:20:42.130Z,96229.36
2022-10-17T09:23:59.458Z,96230.86
2022-10-17T09:26:39.629Z,96229.20
2022-10-17T09:29:17.892Z,96230.31
2022-10-17T09:31:52.634Z,96230.66
2022-10-17T09:34:21.081Z,96224.60
2022-10-17T09:36:50.032Z,96222.31
2022-10-17T09:39:24.991Z,96222.30
2022-10-17T09:41:57.328Z,96226.83
2022-10-17T09:44:35.380Z,96224.99
2022-10-17T09:47:20.627Z,96224.55
2022-10-17T09:49:49.678Z,96220.30
2022-10-17T09:52:33.582Z,96221.10
2022-10-17T09:55:06.175Z,96223.68
2022-10-17T09:57:53.649Z,96222.61
2022-10-17T10:00:27.070Z,96219.83
2022-10-17T10:03:24.425Z,96215.41
2022-10-17T10:06:21.978Z,96217.77
2022-10-17T10:08:58.815Z,96218.23
2022-10-17T10:11:52.105Z,96213.02
2022-10-17T10:14:39.858Z,96210.07
2022-10-17T10:17:44.947Z,96213.48
2022-10-17T10:20:33.833Z,96209.83
2022-10-17T10:23:14.998Z,96209.36
2022-10-17T10:26:00.003Z,96206.70
2022-10-17T10:28:29.907Z,96205.29
2022-10-17T10:33:46.949Z,96199.25
2022-10-17T10:36:16.334Z,96195.95
2022-10-17T10:38:51.588Z,96192.20
2022-10-17T10:41:18.352Z,96190.92
2022-10-17T10:43:51.858Z,96190.64
2022-10-17T10:46:22.168Z,96191.45
2022-10-17T10:48:55.257Z,96192.59
2022-10-17T10:51:30.749Z,96184.04
2022-10-17T10:54:13.084Z,96178.24
2022-10-17T10:56:55.587Z,96174.10
2022-10-17T10:59:36.481Z,96168.39
2022-10-17T11:02:25.390Z,96164.52
2022-10-17T11:04:58.131Z,96158.41
2022-10-17T11:07:33.581Z,96160.20
2022-10-17T11:10:10.355Z,96157.54
2022-10-17T11:12:42.387Z,96155.27
2022-10-17T11:15:19.688Z,96149.80
2022-10-17T11:17:51.857Z,96147.84
2022-10-17T11:20:29.967Z,96139.33
2022-10-17T11:23:10.155Z,96141.60
2022-10-17T11:25:41.248Z,96141.80
2022-10-17T11:28:19.637Z,96138.05
2022-10-17T11:30:52.520Z,96132.98
2022-10-17T11:33:27.852Z,96131.48
2022-10-17T11:35:58.945Z,96124.49
2022-10-17T11:38:43.588Z,96122.98
2022-10-17T11:41:15.707Z,96120.11
2022-10-17T11:44:01.972Z,96117.48
2022-10-17T11:46:29.695Z,96116.18
2022-10-17T11:49:00.248Z,96109.86
2022-10-17T11:54:16.567Z,96103.61
2022-10-17T11:56:52.570Z,96099.18
2022-10-17T11:59:38.047Z,96098.75
2022-10-17T12:02:16.936Z,96101.77
2022-10-17T12:05:02.575Z,96104.10
2022-10-17T12:07:51.622Z,96100.91
2022-10-17T12:10:30.127Z,96100.30
2022-10-17T12:12:56.861Z,96101.88
2022-10-17T12:15:23.581Z,96094.77
2022-10-17T12:18:03.125Z,96092.14
2022-10-17T12:20:36.002Z,96090.88
2022-10-17T12:23:06.176Z,96091.23
2022-10-17T12:28:15.213Z,96083.80
2022-10-17T12:30:54.541Z,96080.46
2022-10-17T12:33:29.174Z,96085.21
2022-10-17T12:36:17.759Z,96084.21
2022-10-17T12:39:13.912Z,96083.27
2022-10-17T12:41:40.835Z,96083.75
2022-10-17T12:44:13.582Z,96080.29
2022-10-17T12:46:51.919Z,96079.14
2022-10-17T12:49:23.978Z,96077.02
2022-10-17T12:52:29.909Z,96078.54
2022-10-17T12:55:12.997Z,96079.15
2022-10-17T12:58:05.164Z,96078.33
2022-10-17T13:01:11.829Z,96077.00
2022-10-17T13:03:44.748Z,96080.67
2022-10-17T13:06:20.948Z,96075.12
2022-10-17T13:08:56.848Z,96076.30
2022-10-17T13:11:29.292Z,96076.17
2022-10-17T13:13:59.636Z,96073.63
2022-10-17T13:16:36.930Z,96070.02
2022-10-17T13:19:13.334Z,96070.42
2022-10-17T13:21:40.156Z,96070.21
2022-10-17T13:24:42.586Z,96070.35
2022-10-17T13:27:26.899Z,96069.73
2022-10-17T13:29:56.544Z,96073.82
2022-10-17T13:32:25.488Z,96073.02
2022-10-17T13:35:07.348Z,96074.09
2022-10-17T13:37:35.337Z,96069.36
2022-10-17T13:40:16.262Z,96074.39
2022-10-17T13:42:51.025Z,96075.08
2022-10-17T13:45:37.145Z,96077.66
2022-10-17T13:48:10.859Z,96076.09
2022-10-17T13:50:45.292Z,96079.01
2022-10-17T13:53:20.395Z,96084.22
2022-10-17T13:56:28.383Z,96089.21
2022-10-17T13:59:08.363Z,96087.85
2022-10-17T14:01:35.355Z,96096.20
2022-10-17T14:04:09.000Z,96096.76
2022-10-17T14:06:46.215Z,96098.08
2022-10-17T14:09:31.014Z,96099.75
2022-10-17T14:12:16.838Z,96102.20
2022-10-17T14:15:09.678Z,96095.73
2022-10-17T14:17:38.741Z,96096.14
2022-10-17T14:20:34.486Z,96100.38
2022-10-17T14:23:20.891Z,96098.97
2022-10-17T14:25:41.456Z,96098.20
2022-10-17T14:28:11.913Z,96096.15
2022-10-17T14:31:03.197Z,96101.20
2022-10-17T14:33:32.149Z,96100.70
2022-10-17T14:36:01.986Z,96102.42
2022-10-17T14:38:30.447Z,96101.65
2022-10-17T14:41:30.589Z,96104.34
2022-10-17T14:44:00.090Z,96106.27
2022-10-17T14:46:27.934Z,96104.90
2022-10-17T14:49:05.777Z,96108.23
2022-10-17T14:51:44.701Z,96107.98
2022-10-17T14:54:26.133Z,96105.84
2022-10-17T14:56:55.110Z,96109.01
2022-10-17T14:59:51.985Z,96106.98
2022-10-17T15:02:13.530Z,96105.70
2022-10-17T15:04:40.537Z,96105.02
2022-10-17T15:07:07.455Z,96108.95
2022-10-17T15:09:34.174Z,96112.02
2022-10-17T15:12:05.131Z,96112.68
2022-10-17T15:14:31.802Z,96113.39
2022-10-17T15:16:58.596Z,96113.09
2022-10-17T15:19:25.300Z,96113.02
2022-10-17T15:21:51.982Z,96113.88
2022-10-17T15:24:18.832Z,96114.13
2022-10-17T15:26:45.630Z,96115.61
2022-10-17T15:29:16.334Z,96118.17
2022-10-17T15:31:43.317Z,96120.36
2022-10-17T15:34:10.038Z,96122.42
2022-10-17T15:36:41.421Z,96123.98
2022-10-17T15:39:10.435Z,96123.35
2022-10-17T15:41:37.201Z,96125.07
2022-10-17T15:44:04.066Z,96123.09
2022-10-17T15:46:34.205Z,96124.19
2022-10-17T15:51:53.030Z,96129.84
2022-10-17T15:54:22.135Z,96130.70
2022-10-17T15:56:54.603Z,96130.37
2022-10-17T15:59:26.223Z,96131.31
2022-10-17T16:01:52.943Z,96134.81
2022-10-17T16:04:19.786Z,96134.65
2022-10-17T16:06:46.571Z,96143.54
2022-10-17T16:09:13.421Z,96145.02
2022-10-17T16:11:42.928Z,96148.81
2022-10-17T16:14:16.908Z,96150.91
2022-10-17T16:16:44.891Z,96148.86
2022-10-17T16:19:12.681Z,96150.23
2022-10-17T16:21:41.043Z,96158.72
2022-10-17T16:24:11.606Z,96155.80
2022-10-17T16:26:41.342Z,96155.61
2022-10-17T16:29:09.543Z,96159.31
2022-10-17T16:31:40.142Z,96163.42
2022-10-17T16:34:07.928Z,96168.86
2022-10-17T16:36:35.357Z,96169.91
2022-10-17T16:39:02.140Z,96172.27
2022-10-17T16:41:31.737Z,96177.14
2022-10-17T16:44:01.861Z,96179.05
2022-10-17T16:46:30.844Z,96177.20
2022-10-17T16:48:58.124Z,96182.23
2022-10-17T16:51:25.565Z,96183.75
2022-10-17T16:53:54.570Z,96186.91
2022-10-17T16:56:23.323Z,96191.63
2022-10-17T16:58:51.974Z,96198.77
2022-10-17T17:01:21.477Z,96198.33
2022-10-17T17:03:48.530Z,96203.60
2022-10-17T17:06:19.197Z,96207.23
2022-10-17T17:08:46.932Z,96208.02
2022-10-17T17:11:16.227Z,96214.13
2022-10-17T17:13:43.058Z,96212.75
2022-10-17T17:16:16.438Z,96212.47
2022-10-17T17:18:43.770Z,96208.84
2022-10-17T17:21:11.450Z,96209.27
2022-10-17T17:23:41.347Z,96202.20
2022-10-17T17:26:14.796Z,96201.84
2022-10-17T17:28:42.726Z,96201.63
2022-10-17T17:31:12.414Z,96210.55
2022-10-17T17:33:40.754Z,96207.36
2022-10-17T17:36:10.880Z,96211.53
2022-10-17T17:38:37.944Z,96213.65
2022-10-17T17:41:05.351Z,96214.91
2022-10-17T17:43:32.355Z,96216.10
2022-10-17T17:46:01.931Z,96215.25
2022-10-17T17:48:28.827Z,96215.81
2022-10-17T17:50:57.128Z,96222.70
2022-10-17T17:53:24.984Z,96215.62
2022-10-17T17:56:08.163Z,96217.77
2022-10-17T17:58:35.643Z,96217.48
2022-10-17T18:01:12.186Z,96220.86
2022-10-17T18:03:41.434Z,96217.54
2022-10-17T18:06:09.465Z,96220.52
2022-10-17T18:08:36.848Z,96220.77
2022-10-17T18:11:05.015Z,96223.02
2022-10-17T18:13:32.970Z,96221.88
2022-10-17T18:16:01.922Z,96224.54
2022-10-17T18:18:30.987Z,96219.97
2022-10-17T18:21:02.900Z,96219.06
2022-10-17T18:23:30.409Z,96216.98
2022-10-17T18:26:01.645Z,96217.23
2022-10-17T18:28:31.667Z,96219.98
2022-10-17T18:31:06.216Z,96222.89
2022-10-17T18:33:33.931Z,96221.27
2022-10-17T18:36:10.402Z,96220.75
2022-10-17T18:38:38.125Z,96218.90
2022-10-17T18:41:15.502Z,96221.95
2022-10-17T18:43:47.849Z,96223.52
2022-10-17T18:46:26.746Z,96222.92
2022-10-17T18:48:54.604Z,96224.58
2022-10-17T18:51:23.922Z,96226.77
2022-10-17T18:53:54.976Z,96232.06
2022-10-17T18:56:23.450Z,96231.07
2022-10-17T19:02:41.837Z,96240.61
2022-10-17T19:05:09.157Z,96243.72
2022-10-17T19:07:36.558Z,96243.11
2022-10-17T19:10:04.140Z,96241.40
2022-10-17T19:12:31.058Z,96242.27
2022-10-17T19:14:57.756Z,96240.17
2022-10-17T19:17:25.311Z,96239.25
2022-10-17T19:19:53.555Z,96236.61
2022-10-17T19:22:20.316Z,96236.21
2022-10-17T19:24:47.345Z,96242.49
2022-10-17T19:27:14.327Z,96238.77
2022-10-17T19:29:43.798Z,96239.31
2022-10-17T19:32:15.732Z,96243.66
2022-10-17T19:34:45.100Z,96243.91
2022-10-17T19:37:13.143Z,96242.81
2022-10-17T19:39:41.824Z,96249.73
2022-10-17T19:42:08.606Z,96250.98
2022-10-17T19:44:36.274Z,96252.67
2022-10-17T19:47:03.234Z,96254.02
2022-10-17T19:49:30.401Z,96252.53
2022-10-17T19:51:57.265Z,96253.68
2022-10-17T19:54:33.275Z,96251.66
2022-10-17T19:57:03.177Z,96251.19
2022-10-17T19:59:32.861Z,96251.27
2022-10-17T20:02:00.270Z,96256.54
2022-10-17T20:04:27.721Z,96256.52
2022-10-17T20:06:59.873Z,96258.48
2022-10-17T20:09:27.133Z,96263.43
2022-10-17T20:11:53.931Z,96265.21
2022-10-17T20:14:20.990Z,96265.51
2022-10-17T20:16:52.641Z,96270.70
2022-10-17T20:19:20.546Z,96273.56
2022-10-17T20:21:47.652Z,96274.02
2022-10-17T20:24:16.805Z,96270.37
2022-10-17T20:26:44.642Z,96275.16
2022-10-17T20:29:17.992Z,96269.26
2022-10-17T20:31:46.457Z,96268.86
2022-10-17T20:34:15.882Z,96268.29
2022-10-17T20:36:43.022Z,96264.80
2022-10-17T20:39:12.263Z,96265.24
2022-10-17T20:41:39.076Z,96263.67
2022-10-17T20:44:07.101Z,96266.23
2022-10-17T20:46:37.235Z,96263.72
2022-10-17T20:49:08.644Z,96261.21
2022-10-17T20:51:36.137Z,96261.50
2022-10-17T20:54:03.571Z,96259.74
2022-10-17T20:56:32.129Z,96261.14
2022-10-17T20:59:01.360Z,96256.85
2022-10-17T21:01:29.542Z,96262.41
2022-10-17T21:03:59.627Z,96263.42
2022-10-17T21:06:26.880Z,96264.73
2022-10-17T21:08:55.802Z,96259.83
2022-10-17T21:11:25.830Z,96256.09
2022-10-17T21:14:03.167Z,96257.79
2022-10-17T21:16:32.890Z,96261.96
2022-10-17T21:19:00.277Z,96266.61
2022-10-17T21:21:33.940Z,96267.59
2022-10-17T21:24:03.754Z,96270.28
2022-10-17T21:26:33.294Z,96271.34
2022-10-17T21:29:05.680Z,96269.09
2022-10-17T21:31:38.158Z,96267.98
2022-10-17T21:34:13.561Z,96265.17
2022-10-17T21:36:40.761Z,96265.00
2022-10-17T21:41:40.074Z,96263.56
2022-10-17T21:44:12.287Z,96260.59
2022-10-17T21:46:39.022Z,96262.36
2022-10-17T21:49:05.827Z,96259.46
2022-10-17T21:51:32.613Z,96257.35
2022-10-17T21:53:59.388Z,96254.77
2022-10-17T21:56:28.871Z,96256.23
2022-10-17T21:58:56.849Z,96254.29
2022-10-17T22:01:29.309Z,96257.14
2022-10-17T22:03:59.345Z,96255.82
2022-10-17T22:06:43.739Z,96253.39
2022-10-17T22:09:15.938Z,96254.21
2022-10-17T22:11:46.104Z,96255.12
2022-10-17T22:14:16.320Z,96253.47
2022-10-17T22:16:45.416Z,96261.58
2022-10-17T22:19:14.289Z,96258.45
2022-10-17T22:21:41.138Z,96261.14
2022-10-17T22:24:11.225Z,96256.64
2022-10-17T22:26:38.230Z,96260.11
2022-10-17T22:29:06.973Z,96257.91
2022-10-17T22:31:34.626Z,96259.67
2022-10-17T22:34:01.310Z,96255.09
2022-10-17T22:36:28.181Z,96258.84
2022-10-17T22:38:55.188Z,96258.27
2022-10-17T22:41:21.857Z,96254.14
2022-10-17T22:43:48.542Z,96256.27
2022-10-17T22:46:18.664Z,96257.86
2022-10-17T22:48:46.187Z,96254.75
2022-10-17T22:51:13.704Z,96253.50
2022-10-17T22:53:40.679Z,96256.89
2022-10-17T22:56:17.089Z,96255.41
2022-10-17T22:58:43.913Z,96254.27
2022-10-17T23:01:15.706Z,96251.91
2022-10-17T23:03:43.314Z,96249.30
2022-10-17T23:06:10.622Z,96249.10
2022-10-17T23:08:37.925Z,96247.81
2022-10-17T23:11:05.675Z,96249.63
2022-10-17T23:13:32.627Z,96249.66
2022-10-17T23:15:59.301Z,96250.96
2022-10-17T23:18:27.230Z,96253.96
2022-10-17T23:20:54.056Z,96247.29
2022-10-17T23:23:21.450Z,96241.15
2022-10-17T23:25:49.065Z,96241.90
2022-10-17T23:28:15.758Z,96238.01
2022-10-17T23:30:42.587Z,96227.14
2022-10-17T23:33:11.454Z,96229.89
2022-10-17T23:35:39.119Z,96226.62
2022-10-17T23:38:05.855Z,96221.09
2022-10-17T23:40:32.658Z,96222.70
2022-10-17T23:42:59.354Z,96219.13
2022-10-17T23:45:26.072Z,96217.19
2022-10-17T23:47:52.887Z,96214.55
2022-10-17T23:50:19.545Z,96217.33
2022-10-17T23:52:46.289Z,96220.81
2022-10-17T23:55:13.071Z,96217.55
2022-10-17T23:57:39.850Z,96218.91
